Time;durP1;ratioP1;P1;durP2;ratioP2;P2;SDS_P1;SDS_P2;PMS_P1;PMS_P2;Temp;Humidity;BMP_temperature;BMP_pressure;BME280_temperature;BME280_humidity;BME280_pressure;Samples;Min_cycle;Max_cycle;Signal;HPM_P1;HPM_P2
2021/09/25 00:01:48;;;;;;;1999.90;999.90;;;;;;;9.82;89.09;95918.06;5069407;28;20222;-71
2021/09/25 00:04:16;;;;;;;1999.90;999.90;;;;;;;9.79;89.17;95921.22;5068916;28;20278;-71
2021/09/25 00:06:44;;;;;;;1999.90;999.90;;;;;;;9.73;90.18;95917.91;5069076;28;20210;-71
2021/09/25 00:09:12;;;;;;;1999.90;999.90;;;;;;;9.75;89.12;95915.81;5069321;28;20200;-71
2021/09/25 00:11:39;;;;;;;1999.90;999.90;;;;;;;9.68;89.23;95924.97;5069002;28;20699;-71
2021/09/25 00:14:06;;;;;;;1999.90;999.90;;;;;;;9.57;89.19;95920.91;5068891;28;20192;-70
2021/09/25 00:16:34;;;;;;;1999.90;999.90;;;;;;;9.59;89.63;95924.81;5068785;28;20203;-71
2021/09/25 00:19:02;;;;;;;1999.90;999.90;;;;;;;9.58;89.15;95925.06;5068722;28;20193;-71
2021/09/25 00:21:30;;;;;;;1999.90;999.90;;;;;;;9.57;89.45;95926.09;5068858;28;20637;-71
2021/09/25 00:23:58;;;;;;;1999.90;999.90;;;;;;;9.67;88.80;95931.19;5068712;28;20228;-71
2021/09/25 00:26:27;;;;;;;1999.90;999.90;;;;;;;9.63;88.59;95930.22;5068832;28;20621;-71
2021/09/25 00:28:54;;;;;;;1999.90;999.90;;;;;;;9.58;89.06;95931.03;5069191;28;20200;-70
2021/09/25 00:31:24;;;;;;;1999.90;999.90;;;;;;;9.64;89.40;95934.34;5069271;28;20196;-70
2021/09/25 00:33:51;;;;;;;1999.90;999.90;;;;;;;9.60;89.15;95935.97;5069407;28;20201;-71
2021/09/25 00:36:18;;;;;;;1999.90;999.90;;;;;;;9.64;89.60;95935.13;5069232;28;20232;-71
2021/09/25 00:38:45;;;;;;;1999.90;999.90;;;;;;;9.72;89.26;95937.09;5069040;28;20627;-71
2021/09/25 00:41:14;;;;;;;1999.90;999.90;;;;;;;9.64;89.68;95932.53;5069125;28;20210;-71
2021/09/25 00:43:41;;;;;;;1999.90;999.90;;;;;;;9.52;90.13;95932.91;5068956;28;20231;-71
2021/09/25 00:46:09;;;;;;;1999.90;999.90;;;;;;;9.60;90.12;95938.56;5069088;28;20199;-69
2021/09/25 00:48:36;;;;;;;1999.90;999.90;;;;;;;9.54;90.35;95939.66;5068926;28;20302;-70
2021/09/25 00:51:03;;;;;;;1999.90;999.90;;;;;;;9.54;89.87;95937.06;5068920;28;20581;-71
2021/09/25 00:53:30;;;;;;;1999.90;999.90;;;;;;;9.40;89.94;95945.50;5068503;28;20204;-71
2021/09/25 00:55:59;;;;;;;1999.90;999.90;;;;;;;9.27;90.39;95940.94;5068519;28;20684;-71
2021/09/25 00:58:29;;;;;;;1999.90;999.90;;;;;;;9.29;91.54;95941.44;5068448;28;20193;-71
2021/09/25 01:00:56;;;;;;;1999.90;999.90;;;;;;;9.37;91.80;95943.44;5068853;28;20192;-71
2021/09/25 01:03:23;;;;;;;1999.90;999.90;;;;;;;9.28;92.51;95933.91;5068330;28;20286;-71
2021/09/25 01:05:50;;;;;;;1999.90;999.90;;;;;;;9.23;92.53;95939.94;5068730;28;20672;-71
2021/09/25 01:08:22;;;;;;;1999.90;999.90;;;;;;;8.88;91.71;95942.81;5068306;28;20201;-71
2021/09/25 01:10:50;;;;;;;1999.90;999.90;;;;;;;8.81;91.32;95932.78;5068326;28;20224;-71
2021/09/25 01:13:18;;;;;;;1999.90;999.90;;;;;;;8.88;90.96;95938.41;5068561;28;20199;-71
2021/09/25 01:15:47;;;;;;;1999.90;999.90;;;;;;;8.80;91.08;95944.19;5068306;28;20672;-71
2021/09/25 01:18:14;;;;;;;1999.90;999.90;;;;;;;8.64;91.20;95940.91;5068397;28;20269;-71
2021/09/25 01:20:42;;;;;;;1999.90;999.90;;;;;;;8.38;92.69;95942.09;5068272;28;20235;-71
2021/09/25 01:23:11;;;;;;;1999.90;999.90;;;;;;;8.35;93.50;95947.06;5068291;28;20203;-71
2021/09/25 01:25:38;;;;;;;1999.90;999.90;;;;;;;8.47;93.40;95948.25;5068498;28;20279;-69
2021/09/25 01:28:05;;;;;;;1999.90;999.90;;;;;;;8.29;93.76;95948.84;5070477;28;20287;-71
2021/09/25 01:30:32;;;;;;;1999.90;999.90;;;;;;;8.38;93.65;95944.69;5071840;28;20244;-71
2021/09/25 01:33:01;;;;;;;1999.90;999.90;;;;;;;8.35;94.36;95947.81;5071947;28;20219;-71
2021/09/25 01:35:29;;;;;;;1999.90;999.90;;;;;;;8.40;94.42;95947.81;5071793;28;20197;-71
2021/09/25 01:37:56;;;;;;;1999.90;999.90;;;;;;;8.40;93.83;95947.03;5071633;28;20211;-71
2021/09/25 01:40:26;;;;;;;1999.90;999.90;;;;;;;8.37;93.44;95953.50;5071903;28;20246;-70
2021/09/25 01:42:53;;;;;;;1999.90;999.90;;;;;;;8.31;93.65;95954.59;5071636;28;20668;-71
2021/09/25 01:45:21;;;;;;;1999.90;999.90;;;;;;;8.17;93.21;95959.53;5071519;28;20310;-71
2021/09/25 01:47:48;;;;;;;1999.90;999.90;;;;;;;8.17;92.92;95954.34;5071474;28;20204;-72
2021/09/25 01:50:16;;;;;;;1999.90;999.90;;;;;;;8.30;93.36;95955.63;5071465;28;20265;-72
2021/09/25 01:52:44;;;;;;;1999.90;999.90;;;;;;;8.36;94.56;95956.38;5071004;28;20287;-71
2021/09/25 01:55:12;;;;;;;1999.90;999.90;;;;;;;8.47;95.14;95952.66;5071631;28;20227;-71
2021/09/25 01:57:41;;;;;;;1999.90;999.90;;;;;;;8.44;94.50;95956.56;5071011;28;20254;-71
2021/09/25 02:00:09;;;;;;;1999.90;999.90;;;;;;;8.45;93.93;95955.53;5071654;28;20227;-71
2021/09/25 02:02:37;;;;;;;1999.90;999.90;;;;;;;8.40;93.34;95952.97;5059774;28;20258;-71
2021/09/25 02:05:06;;;;;;;1999.90;999.90;;;;;;;8.37;93.71;95955.34;5070772;28;20672;-72
2021/09/25 02:07:33;;;;;;;1999.90;999.90;;;;;;;8.40;93.73;95963.34;5070855;28;20189;-72
2021/09/25 02:10:00;;;;;;;1999.90;999.90;;;;;;;8.30;93.23;95971.16;5070087;28;20203;-71
2021/09/25 02:12:28;;;;;;;1999.90;999.90;;;;;;;8.31;93.11;95980.47;5071328;28;20196;-72
2021/09/25 02:14:56;;;;;;;1999.90;999.90;;;;;;;8.06;93.43;95988.31;5071136;28;20278;-71
2021/09/25 02:17:24;;;;;;;1999.90;999.90;;;;;;;7.99;93.79;95980.06;5071043;28;20188;-72
2021/09/25 02:19:51;;;;;;;1999.90;999.90;;;;;;;7.88;94.79;95981.91;5070670;28;20224;-71
2021/09/25 02:22:19;;;;;;;1999.90;999.90;;;;;;;7.64;94.71;95979.13;5071071;28;20199;-72
2021/09/25 02:24:46;;;;;;;1999.90;999.90;;;;;;;7.50;95.09;95979.91;5070794;28;20278;-72
2021/09/25 02:27:13;;;;;;;1999.90;999.90;;;;;;;7.43;96.18;95975.00;5071088;28;20249;-72
2021/09/25 02:29:41;;;;;;;1999.90;999.90;;;;;;;7.52;95.84;95981.19;5070699;28;20197;-71
2021/09/25 02:32:09;;;;;;;1999.90;999.90;;;;;;;7.59;95.69;95979.13;5070678;28;20196;-72
2021/09/25 02:34:37;;;;;;;1999.90;999.90;;;;;;;7.70;95.47;95982.47;5070760;28;20196;-71
2021/09/25 02:37:05;;;;;;;1999.90;999.90;;;;;;;7.77;96.22;95982.97;5071001;28;20203;-72
2021/09/25 02:39:34;;;;;;;1999.90;999.90;;;;;;;7.81;95.93;95986.59;5070567;28;20687;-72
2021/09/25 02:42:02;;;;;;;1999.90;999.90;;;;;;;7.84;96.12;95991.22;5070816;28;20218;-72
2021/09/25 02:44:29;;;;;;;1999.90;999.90;;;;;;;7.91;96.27;95996.13;5070700;28;20314;-72
2021/09/25 02:46:57;;;;;;;1999.90;999.90;;;;;;;8.11;96.23;95998.66;5070678;28;20588;-72
2021/09/25 02:49:25;;;;;;;1999.90;999.90;;;;;;;8.16;97.03;95994.25;5070290;28;20193;-72
2021/09/25 02:51:53;;;;;;;1999.90;999.90;;;;;;;8.19;96.85;95998.09;5070685;28;20200;-72
2021/09/25 02:54:20;;;;;;;1999.90;999.90;;;;;;;8.25;96.57;96004.81;5070133;28;20193;-72
2021/09/25 02:56:47;;;;;;;1999.90;999.90;;;;;;;8.17;96.22;96006.13;5070162;28;20240;-72
2021/09/25 02:59:14;;;;;;;1999.90;999.90;;;;;;;8.03;96.78;96006.94;5070405;28;20254;-71
2021/09/25 03:01:41;;;;;;;1999.90;999.90;;;;;;;8.03;96.63;96009.53;5070678;28;20204;-72
2021/09/25 03:04:09;;;;;;;1999.90;999.90;;;;;;;8.18;96.52;96012.84;5070231;28;20236;-72
2021/09/25 03:06:37;;;;;;;1999.90;999.90;;;;;;;8.22;96.36;96013.09;5070075;28;20203;-72
2021/09/25 03:09:05;;;;;;;1999.90;999.90;;;;;;;8.30;96.52;96014.41;5070014;28;20219;-71
2021/09/25 03:11:32;;;;;;;1999.90;999.90;;;;;;;8.11;95.69;96024.53;5069901;28;20269;-71
2021/09/25 03:13:59;;;;;;;1999.90;999.90;;;;;;;7.96;94.77;96022.00;5070221;28;20207;-71
2021/09/25 03:16:27;;;;;;;1999.90;999.90;;;;;;;7.93;94.82;96025.09;5069829;28;20248;-71
2021/09/25 03:18:54;;;;;;;1999.90;999.90;;;;;;;7.70;95.38;96031.63;5069767;28;20203;-71
2021/09/25 03:21:21;;;;;;;1999.90;999.90;;;;;;;7.66;94.91;96026.19;5069617;28;20267;-71
2021/09/25 03:23:50;;;;;;;1999.90;999.90;;;;;;;7.58;94.99;96029.28;5069541;28;20201;-71
2021/09/25 03:26:17;;;;;;;1999.90;999.90;;;;;;;7.49;94.68;96028.28;5069694;28;20208;-71
2021/09/25 03:28:44;;;;;;;1999.90;999.90;;;;;;;7.49;94.36;96037.84;5069802;28;20192;-71
2021/09/25 03:31:11;;;;;;;1999.90;999.90;;;;;;;7.41;95.05;96036.56;5069595;28;20224;-71
2021/09/25 03:33:39;;;;;;;1999.90;999.90;;;;;;;7.42;95.81;96032.16;5069573;28;20203;-71
2021/09/25 03:36:06;;;;;;;1999.90;999.90;;;;;;;7.55;96.55;96035.00;5069444;28;20256;-71
2021/09/25 03:38:34;;;;;;;1999.90;999.90;;;;;;;7.61;96.45;96043.53;5069455;28;20196;-71
2021/09/25 03:41:03;;;;;;;1999.90;999.90;;;;;;;7.57;98.32;96038.09;5070055;28;20289;-72
2021/09/25 03:43:30;;;;;;;1999.90;999.90;;;;;;;7.54;98.77;96043.78;5069619;28;20196;-72
2021/09/25 03:45:57;;;;;;;1999.90;999.90;;;;;;;7.54;98.90;96046.38;5069317;28;20708;-71
2021/09/25 03:48:25;;;;;;;1999.90;999.90;;;;;;;7.60;98.59;96047.94;5069374;28;20193;-71
2021/09/25 03:50:53;;;;;;;1999.90;999.90;;;;;;;7.64;99.10;96048.16;5069309;28;20660;-71
2021/09/25 03:53:20;;;;;;;1999.90;999.90;;;;;;;7.58;98.82;96049.97;5069202;28;20580;-71
2021/09/25 03:55:47;;;;;;;1999.90;999.90;;;;;;;7.67;98.52;96056.19;5069198;28;20192;-71
2021/09/25 03:58:16;;;;;;;1999.90;999.90;;;;;;;7.75;98.22;96060.84;5069203;28;20200;-72
2021/09/25 04:00:43;;;;;;;1999.90;999.90;;;;;;;7.75;98.43;96057.47;5069505;28;20207;-71
2021/09/25 04:03:11;;;;;;;1999.90;999.90;;;;;;;7.70;98.35;96068.59;5069150;28;20209;-71
2021/09/25 04:05:39;;;;;;;1999.90;999.90;;;;;;;7.52;97.66;96069.13;5068893;28;20223;-71
2021/09/25 04:08:06;;;;;;;1999.90;999.90;;;;;;;7.53;97.52;96072.47;5069123;28;20196;-71
2021/09/25 04:10:34;;;;;;;1999.90;999.90;;;;;;;7.55;97.35;96076.38;5068960;28;20196;-71
2021/09/25 04:13:01;;;;;;;1999.90;999.90;;;;;;;7.62;97.19;96074.28;5069287;28;20208;-71
2021/09/25 04:15:29;;;;;;;1999.90;999.90;;;;;;;7.64;97.76;96074.81;5068994;28;20557;-72
2021/09/25 04:17:57;;;;;;;1999.90;999.90;;;;;;;7.73;97.42;96082.81;5068986;28;20797;-71
2021/09/25 04:20:24;;;;;;;1999.90;999.90;;;;;;;7.86;98.00;96081.53;5068895;28;20228;-71
2021/09/25 04:22:51;;;;;;;1999.90;999.90;;;;;;;7.98;97.68;96085.38;5069156;28;20668;-72
2021/09/25 04:25:19;;;;;;;1999.90;999.90;;;;;;;8.10;96.99;96077.34;5068803;28;20242;-72
2021/09/25 04:27:51;;;;;;;1999.90;999.90;;;;;;;8.27;95.22;96082.97;5069246;28;20200;-72
2021/09/25 04:30:18;;;;;;;1999.90;999.90;;;;;;;8.25;95.31;96087.66;5068907;28;20181;-72
2021/09/25 04:32:47;;;;;;;1999.90;999.90;;;;;;;8.23;95.47;96095.69;5068979;28;20197;-72
2021/09/25 04:35:14;;;;;;;1999.90;999.90;;;;;;;8.29;95.58;96100.84;5068883;28;20553;-72
2021/09/25 04:37:41;;;;;;;1999.90;999.90;;;;;;;8.40;96.39;96092.03;5068802;28;20211;-73
2021/09/25 04:40:09;;;;;;;1999.90;999.90;;;;;;;8.39;96.50;96099.03;5069046;28;20201;-72
2021/09/25 04:42:36;;;;;;;1999.90;999.90;;;;;;;8.42;97.52;96105.50;5069145;28;21384;-72
2021/09/25 04:45:04;;;;;;;1999.90;999.90;;;;;;;8.45;96.96;96121.28;5068941;28;20344;-72
2021/09/25 04:47:31;;;;;;;1999.90;999.90;;;;;;;8.53;97.00;96123.34;5068671;28;20250;-73
2021/09/25 04:50:00;;;;;;;1999.90;999.90;;;;;;;8.60;97.28;96123.84;5068759;28;20672;-72
2021/09/25 04:52:27;;;;;;;1999.90;999.90;;;;;;;8.48;97.50;96115.56;5068486;28;20703;-73
2021/09/25 04:54:54;;;;;;;1999.90;999.90;;;;;;;8.54;97.00;96117.13;5068956;28;20196;-73
2021/09/25 04:57:21;;;;;;;1999.90;999.90;;;;;;;8.57;96.43;96129.53;5068597;28;20581;-72
2021/09/25 04:59:48;;;;;;;1999.90;999.90;;;;;;;8.67;95.98;96130.56;5068908;28;20197;-72
2021/09/25 05:02:15;;;;;;;1999.90;999.90;;;;;;;8.79;96.37;96133.59;5069618;28;20734;-72
2021/09/25 05:04:42;;;;;;;1999.90;999.90;;;;;;;8.83;96.15;96129.44;5072581;28;20224;-72
2021/09/25 05:07:11;;;;;;;1999.90;999.90;;;;;;;8.91;96.49;96136.69;5072485;28;20706;-72
2021/09/25 05:09:39;;;;;;;1999.90;999.90;;;;;;;8.99;95.99;96136.88;5072585;28;20196;-72
2021/09/25 05:12:06;;;;;;;1999.90;999.90;;;;;;;9.18;95.10;96144.81;5072216;28;20253;-72
2021/09/25 05:14:34;;;;;;;1999.90;999.90;;;;;;;9.35;94.28;96147.06;5072521;28;20200;-72
2021/09/25 05:17:02;;;;;;;1999.90;999.90;;;;;;;9.43;94.19;96142.06;5072294;28;20668;-72
2021/09/25 05:19:29;;;;;;;1999.90;999.90;;;;;;;9.61;93.12;96140.69;5072029;28;20315;-70
2021/09/25 05:21:56;;;;;;;1999.90;999.90;;;;;;;9.74;92.29;96144.47;5071955;28;20184;-71
2021/09/25 05:24:25;;;;;;;1999.90;999.90;;;;;;;9.98;91.45;96153.09;5071809;28;20205;-71
2021/09/25 05:26:52;;;;;;;1999.90;999.90;;;;;;;10.03;91.92;96160.84;5071731;28;20207;-72
2021/09/25 05:29:20;;;;;;;1999.90;999.90;;;;;;;10.25;90.79;96158.59;5071664;28;20202;-72
2021/09/25 05:31:47;;;;;;;1999.90;999.90;;;;;;;10.89;89.09;96164.44;5071913;28;20208;-72
2021/09/25 05:34:14;;;;;;;1999.90;999.90;;;;;;;11.97;83.83;96166.06;5071819;28;20196;-71
2021/09/25 05:36:41;;;;;;;1999.90;999.90;;;;;;;12.65;78.95;96168.78;5071758;28;20193;-72
2021/09/25 05:39:08;;;;;;;1999.90;999.90;;;;;;;13.41;75.37;96176.97;5071620;28;20760;-72
2021/09/25 05:41:37;;;;;;;1999.90;999.90;;;;;;;14.52;72.02;96180.38;5071665;28;20192;-72
2021/09/25 05:44:05;;;;;;;1999.90;999.90;;;;;;;15.41;67.79;96174.78;5071717;28;20222;-73
2021/09/25 05:46:32;;;;;;;1999.90;999.90;;;;;;;15.38;65.85;96179.88;5071382;28;20223;-71
2021/09/25 05:48:59;;;;;;;1999.90;999.90;;;;;;;15.46;64.81;96185.13;5071757;28;20668;-71
2021/09/25 05:51:26;;;;;;;1999.90;999.90;;;;;;;14.81;66.91;96187.75;5071749;28;20231;-72
2021/09/25 05:53:53;;;;;;;1999.90;999.90;;;;;;;14.25;68.49;96190.22;5071282;28;20206;-71
2021/09/25 05:56:20;;;;;;;1999.90;999.90;;;;;;;14.25;69.21;96198.06;5071335;28;20192;-71
2021/09/25 05:58:49;;;;;;;1999.90;999.90;;;;;;;14.76;69.83;96189.72;5071359;28;20694;-72
2021/09/25 06:01:16;;;;;;;1999.90;999.90;;;;;;;15.61;68.70;96193.63;5071563;28;20204;-72
2021/09/25 06:03:44;;;;;;;1999.90;999.90;;;;;;;16.29;65.93;96196.19;5071287;28;20669;-71
2021/09/25 06:06:11;;;;;;;1999.90;999.90;;;;;;;16.34;65.03;96201.28;5071416;28;20615;-71
2021/09/25 06:08:38;;;;;;;1999.90;999.90;;;;;;;16.02;66.24;96204.44;5071476;28;20204;-72
2021/09/25 06:11:05;;;;;;;1999.90;999.90;;;;;;;15.87;66.64;96197.81;5071068;28;20200;-71
2021/09/25 06:13:32;;;;;;;1999.90;999.90;;;;;;;15.43;67.01;96198.84;5070823;28;20211;-70
2021/09/25 06:16:01;;;;;;;1999.90;999.90;;;;;;;15.24;66.69;96198.31;5071175;28;20203;-70
2021/09/25 06:18:28;;;;;;;1999.90;999.90;;;;;;;15.21;67.13;96206.78;5071023;28;20238;-71
2021/09/25 06:20:55;;;;;;;1999.90;999.90;;;;;;;15.14;67.53;96210.94;5071014;28;20248;-70
2021/09/25 06:23:22;;;;;;;1999.90;999.90;;;;;;;15.08;69.28;96207.69;5070936;28;20200;-71
2021/09/25 06:25:50;;;;;;;1999.90;999.90;;;;;;;14.97;68.84;96206.41;5070825;28;20314;-71
2021/09/25 06:28:17;;;;;;;1999.90;999.90;;;;;;;15.09;69.03;96196.91;5070841;28;20201;-70
2021/09/25 06:30:44;;;;;;;1999.90;999.90;;;;;;;15.08;68.57;96197.22;5070816;28;20287;-70
2021/09/25 06:33:13;;;;;;;1999.90;999.90;;;;;;;15.12;69.55;96192.91;5070733;28;20208;-70
2021/09/25 06:35:40;;;;;;;1999.90;999.90;;;;;;;15.30;68.87;96198.94;5070608;28;20312;-70
2021/09/25 06:38:07;;;;;;;1999.90;999.90;;;;;;;15.54;67.47;96196.72;5070903;28;20209;-72
2021/09/25 06:40:34;;;;;;;1999.90;999.90;;;;;;;15.60;65.85;96199.94;5070988;28;20660;-71
2021/09/25 06:43:03;;;;;;;1999.90;999.90;;;;;;;15.76;64.94;96207.06;5070880;28;20283;-72
2021/09/25 06:45:32;;;;;;;1999.90;999.90;;;;;;;15.83;64.75;96198.75;5070706;28;20665;-70
2021/09/25 06:48:00;;;;;;;1999.90;999.90;;;;;;;15.81;67.63;96204.28;5070514;28;20558;-72
2021/09/25 06:50:28;;;;;;;1999.90;999.90;;;;;;;15.96;67.13;96205.66;5070479;28;20196;-72
2021/09/25 06:52:55;;;;;;;1999.90;999.90;;;;;;;16.17;64.57;96203.94;5070326;28;20196;-70
2021/09/25 06:55:23;;;;;;;1999.90;999.90;;;;;;;16.57;65.50;96204.47;5070516;28;20196;-71
2021/09/25 06:57:50;;;;;;;1999.90;999.90;;;;;;;16.78;65.17;96201.97;5070195;28;20196;-70
2021/09/25 07:00:18;;;;;;;1999.90;999.90;;;;;;;17.09;64.29;96210.31;5070421;28;20214;-70
2021/09/25 07:02:45;;;;;;;1999.90;999.90;;;;;;;17.28;64.85;96204.66;5070300;28;20204;-70
2021/09/25 07:05:12;;;;;;;1999.90;999.90;;;;;;;17.42;64.16;96201.81;5070000;28;20219;-71
2021/09/25 07:07:41;;;;;;;1999.90;999.90;;;;;;;17.68;63.72;96207.69;5069913;28;20200;-70
2021/09/25 07:10:11;;;;;;;1999.90;999.90;;;;;;;17.78;64.45;96199.41;5069759;28;20204;-70
2021/09/25 07:12:38;;;;;;;1999.90;999.90;;;;;;;17.84;64.20;96197.34;5070213;28;20196;-71
2021/09/25 07:15:06;;;;;;;1999.90;999.90;;;;;;;18.11;62.55;96209.19;5070005;28;20588;-71
2021/09/25 07:17:33;;;;;;;1999.90;999.90;;;;;;;18.35;60.36;96214.53;5070025;28;20238;-71
2021/09/25 07:20:00;;;;;;;1999.90;999.90;;;;;;;18.34;61.66;96211.13;5069728;28;20231;-69
2021/09/25 07:22:28;;;;;;;1999.90;999.90;;;;;;;18.32;61.59;96207.28;5069765;28;20205;-70
2021/09/25 07:24:56;;;;;;;1999.90;999.90;;;;;;;18.58;60.82;96213.06;5069605;28;20211;-69
2021/09/25 07:27:24;;;;;;;1999.90;999.90;;;;;;;18.80;58.37;96206.63;5069818;28;20200;-72
2021/09/25 07:29:52;;;;;;;1999.90;999.90;;;;;;;18.91;60.12;96213.78;5069929;28;20200;-70
2021/09/25 07:32:20;;;;;;;1999.90;999.90;;;;;;;18.99;59.26;96206.09;5069629;28;20196;-70
2021/09/25 07:34:47;;;;;;;1999.90;999.90;;;;;;;19.07;59.63;96203.38;5069359;28;20199;-70
2021/09/25 07:37:15;;;;;;;1999.90;999.90;;;;;;;19.28;58.39;96206.63;5069488;28;20208;-70
2021/09/25 07:39:42;;;;;;;1999.90;999.90;;;;;;;19.54;59.20;96192.34;5064946;28;20200;-70
2021/09/25 07:42:10;;;;;;;1999.90;999.90;;;;;;;19.70;57.60;96196.59;5061706;28;20210;-70
2021/09/25 07:44:38;;;;;;;1999.90;999.90;;;;;;;19.91;58.22;96199.06;5069158;28;20201;-70
2021/09/25 07:47:05;;;;;;;1999.90;999.90;;;;;;;20.14;57.33;96204.59;5069228;28;20219;-70
2021/09/25 07:49:32;;;;;;;1999.90;999.90;;;;;;;20.17;57.09;96203.94;5069371;28;20201;-71
2021/09/25 07:51:59;;;;;;;1999.90;999.90;;;;;;;20.32;58.01;96200.59;5069233;28;20200;-71
2021/09/25 07:54:27;;;;;;;1999.90;999.90;;;;;;;20.59;56.27;96210.31;5069297;28;20197;-71
2021/09/25 07:56:54;;;;;;;1999.90;999.90;;;;;;;20.68;55.38;96206.75;5069551;28;20732;-70
2021/09/25 07:59:23;;;;;;;1999.90;999.90;;;;;;;20.67;55.78;96206.00;5069168;28;20686;-71
2021/09/25 08:01:51;;;;;;;1999.90;999.90;;;;;;;20.82;54.52;96199.19;5069121;28;20202;-70
2021/09/25 08:04:18;;;;;;;1999.90;999.90;;;;;;;20.91;54.29;96194.50;5069174;28;20705;-70
2021/09/25 08:06:46;;;;;;;1999.90;999.90;;;;;;;20.84;56.05;96189.78;5069350;28;20651;-70
2021/09/25 08:09:13;;;;;;;1999.90;999.90;;;;;;;21.09;55.35;96200.19;5068866;28;20700;-69
2021/09/25 08:11:40;;;;;;;1999.90;999.90;;;;;;;21.32;54.01;96193.94;5068945;28;20261;-69
2021/09/25 08:14:07;;;;;;;1999.90;999.90;;;;;;;21.30;53.73;96190.88;5068933;28;20576;-69
2021/09/25 08:16:36;;;;;;;1999.90;999.90;;;;;;;21.48;53.29;96192.03;5069142;28;20211;-70
2021/09/25 08:19:03;;;;;;;1999.90;999.90;;;;;;;21.58;53.70;96197.88;5068626;28;20572;-70
2021/09/25 08:21:30;;;;;;;1999.90;999.90;;;;;;;21.76;54.07;96188.44;5068896;28;20191;-71
2021/09/25 08:23:58;;;;;;;1999.90;999.90;;;;;;;21.99;54.08;96186.66;5068804;28;20196;-69
2021/09/25 08:26:25;;;;;;;1999.90;999.90;;;;;;;22.05;53.31;96190.56;5066374;28;20235;-69
2021/09/25 08:28:52;;;;;;;1999.90;999.90;;;;;;;21.91;52.50;96192.91;5048912;28;20677;-69
2021/09/25 08:31:19;;;;;;;1999.90;999.90;;;;;;;22.02;54.05;96193.91;5048690;28;20451;-69
2021/09/25 08:33:48;;;;;;;1999.90;999.90;;;;;;;22.35;53.38;96185.44;5048770;28;20687;-68
2021/09/25 08:36:15;;;;;;;1999.90;999.90;;;;;;;22.49;50.69;96190.22;5049373;28;20691;-68
2021/09/25 08:38:42;;;;;;;1999.90;999.90;;;;;;;22.17;50.94;96179.81;5053055;28;20591;-71
2021/09/25 08:41:10;;;;;;;1999.90;999.90;;;;;;;22.21;51.19;96178.00;5052822;28;20193;-68
2021/09/25 08:43:37;;;;;;;1999.90;999.90;;;;;;;22.36;50.53;96181.69;5052808;28;20207;-68
2021/09/25 08:46:06;;;;;;;1999.90;999.90;;;;;;;22.41;50.41;96184.03;5052637;28;20600;-68
2021/09/25 08:48:34;;;;;;;1999.90;999.90;;;;;;;22.51;50.03;96180.03;5052628;28;20201;-70
2021/09/25 08:51:03;;;;;;;1999.90;999.90;;;;;;;22.55;50.50;96183.50;5052528;28;20201;-70
2021/09/25 08:53:31;;;;;;;1999.90;999.90;;;;;;;22.72;50.43;96181.16;5064092;28;20585;-70
2021/09/25 08:55:58;;;;;;;1999.90;999.90;;;;;;;22.49;49.89;96177.75;5072589;28;20196;-69
2021/09/25 08:58:25;;;;;;;1999.90;999.90;;;;;;;22.65;50.19;96172.31;5072878;28;20326;-70
2021/09/25 09:00:54;;;;;;;1999.90;999.90;;;;;;;22.76;48.36;96175.94;5072419;28;20204;-69
2021/09/25 09:03:31;;;;;;;1999.90;999.90;;;;;;;22.84;48.32;96176.81;5072552;28;20200;-70
2021/09/25 09:06:16;;;;;;;1999.90;999.90;;;;;;;23.04;48.27;96168.44;5072339;28;20678;-70
2021/09/25 09:08:45;;;;;;;1999.90;999.90;;;;;;;23.16;47.83;96164.81;5072352;28;20192;-69
2021/09/25 09:11:13;;;;;;;1999.90;999.90;;;;;;;23.26;47.26;96163.44;5072135;28;20226;-69
2021/09/25 09:13:43;;;;;;;1999.90;999.90;;;;;;;23.33;47.76;96153.69;5072185;28;20200;-69
2021/09/25 09:16:11;;;;;;;1999.90;999.90;;;;;;;23.33;45.14;96158.22;5072533;28;20192;-70
2021/09/25 09:18:41;;;;;;;1999.90;999.90;;;;;;;23.44;45.25;96153.81;5072227;28;20281;-69
2021/09/25 09:21:20;;;;;;;1999.90;999.90;;;;;;;23.43;46.10;96157.59;5071330;28;20225;-70
2021/09/25 09:23:49;;;;;;;1999.90;999.90;;;;;;;23.49;45.04;96162.25;5072100;28;20188;-70
2021/09/25 09:26:18;;;;;;;1999.90;999.90;;;;;;;23.60;46.05;96146.47;5071994;28;21036;-70
2021/09/25 09:28:48;;;;;;;1999.90;999.90;;;;;;;23.83;43.66;96149.78;5071931;28;20207;-69
2021/09/25 09:31:15;;;;;;;1999.90;999.90;;;;;;;23.93;45.66;96149.13;5071725;28;20201;-69
2021/09/25 09:33:46;;;;;;;1999.90;999.90;;;;;;;24.06;44.48;96143.59;5072086;28;20664;-67
2021/09/25 09:36:34;;;;;;;1999.90;999.90;;;;;;;24.35;44.57;96153.38;5071781;28;20181;-68
2021/09/25 09:39:07;;;;;;;1999.90;999.90;;;;;;;24.37;43.24;96146.56;5071862;28;20195;-69
2021/09/25 09:41:37;;;;;;;1999.90;999.90;;;;;;;24.54;44.69;96147.88;5072138;28;20185;-68
2021/09/25 09:44:06;;;;;;;1999.90;999.90;;;;;;;24.61;42.41;96149.81;5071652;28;20211;-68
2021/09/25 09:46:40;;;;;;;1999.90;999.90;;;;;;;24.43;43.03;96142.44;5071462;28;20224;-70
2021/09/25 09:49:08;;;;;;;1999.90;999.90;;;;;;;24.30;42.62;96135.88;5070907;28;20188;-67
2021/09/25 09:51:39;;;;;;;1999.90;999.90;;;;;;;24.29;42.55;96149.53;5071484;28;20196;-70
2021/09/25 09:54:22;;;;;;;1999.90;999.90;;;;;;;24.26;43.26;96151.00;5071329;28;20181;-67
2021/09/25 09:56:50;;;;;;;1999.90;999.90;;;;;;;24.60;42.50;96158.94;5071248;28;20184;-68
2021/09/25 09:59:18;;;;;;;1999.90;999.90;;;;;;;24.59;42.89;96160.06;5071211;28;20240;-68
2021/09/25 10:01:45;;;;;;;1999.90;999.90;;;;;;;24.47;42.71;96149.69;5071217;28;20216;-67
2021/09/25 10:04:14;;;;;;;1999.90;999.90;;;;;;;24.70;42.62;96153.69;5071127;28;20226;-67
2021/09/25 10:06:44;;;;;;;1999.90;999.90;;;;;;;24.78;43.25;96160.59;5071462;28;20323;-67
2021/09/25 10:09:14;;;;;;;1999.90;999.90;;;;;;;24.82;42.07;96156.06;5071047;28;20203;-68
2021/09/25 10:11:44;;;;;;;1999.90;999.90;;;;;;;24.86;42.39;96151.53;5071276;28;20204;-68
2021/09/25 10:14:15;;;;;;;1999.90;999.90;;;;;;;24.90;41.38;96156.91;5070929;28;20208;-68
2021/09/25 10:16:42;;;;;;;1999.90;999.90;;;;;;;24.86;42.03;96151.53;5070931;28;20187;-67
2021/09/25 10:19:12;;;;;;;1999.90;999.90;;;;;;;24.72;41.47;96154.09;5070794;28;20199;-67
2021/09/25 10:21:40;;;;;;;1999.90;999.90;;;;;;;24.94;41.50;96151.63;5070969;28;20652;-67
2021/09/25 10:24:11;;;;;;;1999.90;999.90;;;;;;;25.03;41.50;96154.72;5070834;28;20204;-68
2021/09/25 10:26:44;;;;;;;1999.90;999.90;;;;;;;25.13;40.44;96154.03;5070787;28;20208;-67
2021/09/25 10:29:13;;;;;;;1999.90;999.90;;;;;;;25.22;39.15;96139.25;5071034;28;20213;-67
2021/09/25 10:31:40;;;;;;;1999.90;999.90;;;;;;;25.18;41.82;96133.16;5071044;28;20205;-67
2021/09/25 10:34:14;;;;;;;1999.90;999.90;;;;;;;25.31;41.52;96144.25;5070942;28;20202;-67
2021/09/25 10:36:48;;;;;;;1999.90;999.90;;;;;;;25.24;41.39;96134.34;5070747;28;20177;-67
2021/09/25 10:39:29;;;;;;;1999.90;999.90;;;;;;;25.06;41.80;96136.13;5070888;28;20185;-68
2021/09/25 10:42:09;;;;;;;1999.90;999.90;;;;;;;25.28;39.97;96134.34;5070607;28;20242;-67
2021/09/25 10:44:49;;;;;;;1999.90;999.90;;;;;;;24.97;42.05;96134.91;5070559;28;20181;-67
2021/09/25 10:47:19;;;;;;;1999.90;999.90;;;;;;;25.12;41.13;96125.88;5070626;28;20208;-67
2021/09/25 10:49:53;;;;;;;1999.90;999.90;;;;;;;25.01;42.16;96135.69;5070487;28;20204;-68
2021/09/25 10:52:23;;;;;;;1999.90;999.90;;;;;;;25.13;41.95;96128.19;5070236;28;20191;-67
2021/09/25 10:55:33;;;;;;;1999.90;999.90;;;;;;;25.37;41.47;96137.44;5070321;28;20570;-67
2021/09/25 10:58:20;;;;;;;1999.90;999.90;;;;;;;25.41;41.15;96126.78;5070294;28;20271;-67
2021/09/25 11:00:49;;;;;;;1999.90;999.90;;;;;;;25.47;39.92;96128.75;5069667;28;20195;-67
2021/09/25 11:03:49;;;;;;;1999.90;999.90;;;;;;;25.58;40.04;96126.91;5070604;28;20204;-68